createdAt,value
2019-05-18T00:00:36.219Z,59.78
2019-05-18T00:01:36.236Z,59.78
2019-05-18T00:02:36.154Z,59.12
2019-05-18T00:03:36.119Z,59.50
2019-05-18T00:04:36.098Z,59.12
2019-05-18T00:05:36.064Z,59.02
2019-05-18T00:06:36.021Z,58.93
2019-05-18T00:07:35.989Z,59.02
2019-05-18T00:08:35.954Z,59.12
2019-05-18T00:09:35.928Z,59.02
2019-05-18T00:10:35.884Z,59.69
2019-05-18T00:11:35.854Z,59.50
2019-05-18T00:12:35.815Z,59.69
2019-05-18T00:13:35.791Z,58.93
2019-05-18T00:14:35.760Z,58.93
2019-05-18T00:15:35.724Z,59.02
2019-05-18T00:16:35.685Z,59.02
2019-05-18T00:17:35.659Z,59.02
2019-05-18T00:18:35.630Z,59.22
2019-05-18T00:19:35.624Z,59.22
2019-05-18T00:20:35.559Z,59.78
2019-05-18T00:21:35.523Z,59.78
2019-05-18T00:22:35.506Z,59.78
2019-05-18T00:23:35.474Z,60.07
2019-05-18T00:24:35.437Z,59.98
2019-05-18T00:25:35.396Z,59.50
2019-05-18T00:26:35.369Z,59.66
2019-05-18T00:27:35.330Z,59.50
2019-05-18T00:28:35.306Z,59.22
2019-05-18T00:29:35.273Z,59.02
2019-05-18T00:30:35.236Z,59.22
2019-05-18T00:31:35.206Z,59.31
2019-05-18T00:32:35.169Z,59.31
2019-05-18T00:33:35.140Z,60.24
2019-05-18T00:34:35.119Z,59.38
2019-05-18T00:35:35.072Z,59.56
2019-05-18T00:36:35.045Z,58.99
2019-05-18T00:37:35.020Z,58.99
2019-05-18T00:38:34.971Z,58.99
2019-05-18T00:39:34.950Z,58.90
2019-05-18T00:40:34.919Z,59.56
2019-05-18T00:41:34.885Z,59.19
2019-05-18T00:42:34.845Z,59.19
2019-05-18T00:43:34.817Z,59.19
2019-05-18T00:44:34.791Z,59.56
2019-05-18T00:45:34.752Z,59.09
2019-05-18T00:46:34.723Z,58.80
2019-05-18T00:47:41.310Z,59.47
2019-05-18T00:48:34.643Z,58.90
2019-05-18T00:49:34.622Z,58.99
2019-05-18T00:50:34.582Z,58.90
2019-05-18T00:51:34.554Z,58.70
2019-05-18T00:52:34.511Z,59.09
2019-05-18T00:53:34.493Z,58.87
2019-05-18T00:54:34.452Z,58.97
2019-05-18T00:55:34.443Z,59.06
2019-05-18T00:56:34.381Z,58.20
2019-05-18T00:57:34.353Z,58.20
2019-05-18T00:58:34.326Z,58.97
2019-05-18T00:59:34.286Z,58.58
2019-05-18T01:00:34.251Z,58.58
2019-05-18T01:01:34.228Z,58.11
2019-05-18T01:02:34.187Z,58.20
2019-05-18T01:03:34.175Z,58.20
2019-05-18T01:04:34.129Z,58.87
2019-05-18T01:05:34.095Z,58.77
2019-05-18T01:06:34.063Z,58.58
2019-05-18T01:07:34.019Z,58.77
2019-05-18T01:08:33.998Z,58.48
2019-05-18T01:09:33.987Z,58.39
2019-05-18T01:10:33.928Z,58.68
2019-05-18T01:11:33.887Z,58.77
2019-05-18T01:12:33.857Z,58.29
2019-05-18T01:13:33.829Z,58.58
2019-05-18T01:14:33.794Z,58.39
2019-05-18T01:15:33.758Z,58.39
2019-05-18T01:16:33.733Z,58.20
2019-05-18T01:17:33.699Z,58.68
2019-05-18T01:18:33.658Z,58.58
2019-05-18T01:19:33.625Z,58.87
2019-05-18T01:20:33.612Z,58.48
2019-05-18T01:21:33.565Z,57.92
2019-05-18T01:22:33.527Z,58.29
2019-05-18T01:23:33.490Z,57.72
2019-05-18T01:24:33.464Z,57.72
2019-05-18T01:25:33.430Z,57.63
2019-05-18T01:26:33.400Z,57.63
2019-05-18T01:27:33.363Z,57.92
2019-05-18T01:28:33.341Z,57.82
2019-05-18T01:29:33.290Z,57.72
2019-05-18T01:30:33.268Z,57.72
2019-05-18T01:31:33.230Z,57.82
2019-05-18T01:32:33.185Z,57.60
2019-05-18T01:33:33.162Z,57.24
2019-05-18T01:34:33.134Z,58.07
2019-05-18T01:35:33.108Z,57.31
2019-05-18T01:36:33.059Z,57.43
2019-05-18T01:37:33.029Z,57.03
2019-05-18T01:38:32.995Z,57.31
2019-05-18T01:39:32.953Z,57.03
2019-05-18T01:40:32.924Z,57.15
2019-05-18T01:41:32.889Z,56.84
2019-05-18T01:42:32.866Z,57.12
2019-05-18T01:43:32.839Z,56.93
2019-05-18T01:44:32.791Z,57.12
2019-05-18T01:45:32.763Z,57.22
2019-05-18T01:46:32.732Z,57.06
2019-05-18T01:47:32.697Z,57.03
2019-05-18T01:48:32.668Z,57.03
2019-05-18T01:49:32.651Z,57.03
2019-05-18T01:50:32.601Z,56.93
2019-05-18T01:51:32.557Z,56.93
2019-05-18T01:52:32.526Z,57.50
2019-05-18T01:53:32.491Z,57.22
2019-05-18T01:54:32.466Z,57.12
2019-05-18T01:55:32.430Z,56.93
2019-05-18T01:56:32.400Z,57.12
2019-05-18T01:57:32.366Z,56.46
2019-05-18T01:58:32.326Z,56.74
2019-05-18T01:59:32.304Z,56.93
2019-05-18T02:00:32.260Z,56.84
2019-05-18T02:01:32.230Z,56.93
2019-05-18T02:02:32.197Z,57.12
2019-05-18T02:03:32.168Z,56.84
2019-05-18T02:04:32.135Z,57.12
2019-05-18T02:05:32.092Z,57.03
2019-05-18T02:06:32.071Z,57.12
2019-05-18T02:07:32.043Z,57.03
2019-05-18T02:08:31.997Z,57.12
2019-05-18T02:09:31.962Z,56.84
2019-05-18T02:10:31.931Z,57.12
2019-05-18T02:11:31.901Z,56.93
2019-05-18T02:12:31.861Z,57.22
2019-05-18T02:13:31.822Z,57.70
2019-05-18T02:14:31.787Z,56.55
2019-05-18T02:15:31.753Z,57.03
2019-05-18T02:16:31.736Z,57.12
2019-05-18T02:17:31.693Z,57.03
2019-05-18T02:18:31.678Z,56.93
2019-05-18T02:19:31.632Z,57.03
2019-05-18T02:20:31.598Z,56.93
2019-05-18T02:21:31.554Z,56.65
2019-05-18T02:22:31.527Z,57.03
2019-05-18T02:23:31.496Z,56.93
2019-05-18T02:24:31.459Z,56.74
2019-05-18T02:25:31.426Z,56.55
2019-05-18T02:26:31.397Z,56.62
2019-05-18T02:27:31.348Z,56.65
2019-05-18T02:28:31.323Z,56.52
2019-05-18T02:29:31.301Z,56.26
2019-05-18T02:30:31.265Z,56.36
2019-05-18T02:31:31.227Z,56.36
2019-05-18T02:32:31.197Z,56.36
2019-05-18T02:33:31.172Z,55.88
2019-05-18T02:34:31.131Z,56.52
2019-05-18T02:35:31.099Z,55.98
2019-05-18T02:36:31.054Z,56.36
2019-05-18T02:37:31.019Z,56.46
2019-05-18T02:38:31.005Z,56.36
2019-05-18T02:39:30.953Z,56.46
2019-05-18T02:40:30.933Z,56.74
2019-05-18T02:41:30.887Z,56.90
2019-05-18T02:42:31.062Z,56.43
2019-05-18T02:43:30.830Z,56.24
2019-05-18T02:44:30.783Z,55.95
2019-05-18T02:45:30.744Z,55.76
2019-05-18T02:46:30.725Z,55.47
2019-05-18T02:47:30.690Z,55.57
2019-05-18T02:48:47.778Z,54.90
2019-05-18T02:49:30.624Z,55.28
2019-05-18T02:50:30.586Z,54.61
2019-05-18T02:51:30.549Z,54.24
2019-05-18T02:52:30.516Z,54.14
2019-05-18T02:53:30.503Z,53.95
2019-05-18T02:54:30.454Z,53.56
2019-05-18T02:55:30.409Z,53.76
2019-05-18T02:56:30.379Z,53.76
2019-05-18T02:57:30.351Z,53.76
2019-05-18T02:58:30.304Z,53.76
2019-05-18T02:59:30.286Z,53.12
2019-05-18T03:00:30.246Z,53.12
2019-05-18T03:01:30.215Z,52.90
2019-05-18T03:02:30.170Z,53.12
2019-05-18T03:03:30.150Z,52.83
2019-05-18T03:04:30.114Z,52.64
2019-05-18T03:05:30.080Z,52.36
2019-05-18T03:06:30.115Z,52.33
2019-05-18T03:07:30.016Z,52.45
2019-05-18T03:08:29.974Z,52.26
2019-05-18T03:09:29.948Z,52.73
2019-05-18T03:10:29.904Z,52.55
2019-05-18T03:11:29.875Z,52.64
2019-05-18T03:12:29.840Z,52.26
2019-05-18T03:13:29.810Z,51.97
2019-05-18T03:14:29.776Z,52.36
2019-05-18T03:15:29.752Z,52.26
2019-05-18T03:16:29.709Z,51.78
2019-05-18T03:17:29.671Z,52.16
2019-05-18T03:18:29.640Z,52.16
2019-05-18T03:19:29.606Z,51.21
2019-05-18T03:20:29.584Z,51.50
2019-05-18T03:21:29.536Z,51.50
2019-05-18T03:22:29.515Z,51.50
2019-05-18T03:23:29.476Z,51.21
2019-05-18T03:24:29.437Z,51.50
2019-05-18T03:25:29.405Z,51.50
2019-05-18T03:26:29.370Z,51.78
2019-05-18T03:27:29.341Z,51.50
2019-05-18T03:28:29.311Z,51.31
2019-05-18T03:29:29.263Z,51.59
2019-05-18T03:30:29.241Z,51.12
2019-05-18T03:31:29.209Z,50.83
2019-05-18T03:32:29.166Z,50.92
2019-05-18T03:33:30.346Z,50.92
2019-05-18T03:34:29.142Z,51.02
2019-05-18T03:35:29.075Z,50.92
2019-05-18T03:36:29.045Z,51.12
2019-05-18T03:37:29.006Z,50.83
2019-05-18T03:38:28.989Z,50.92
2019-05-18T03:39:28.938Z,51.12
2019-05-18T03:40:28.915Z,51.12
2019-05-18T03:41:28.871Z,51.12
2019-05-18T03:42:28.846Z,50.73
2019-05-18T03:43:28.802Z,51.02
2019-05-18T03:44:28.799Z,50.83
2019-05-18T03:45:28.738Z,50.54
2019-05-18T03:46:28.724Z,50.54
2019-05-18T03:47:28.675Z,50.54
2019-05-18T03:48:28.636Z,51.04
2019-05-18T03:49:28.598Z,51.14
2019-05-18T03:50:28.600Z,50.95
2019-05-18T03:51:28.548Z,51.14
2019-05-18T03:52:28.502Z,51.04
2019-05-18T03:53:28.494Z,51.04
2019-05-18T03:54:28.462Z,50.95
2019-05-18T03:55:28.407Z,50.95
2019-05-18T03:56:28.378Z,51.14
2019-05-18T03:57:28.348Z,51.52
2019-05-18T03:58:28.308Z,51.52
2019-05-18T03:59:28.274Z,51.23
2019-05-18T04:00:28.243Z,51.71
2019-05-18T04:01:28.205Z,51.43
2019-05-18T04:02:28.181Z,51.52
2019-05-18T04:03:28.143Z,51.52
2019-05-18T04:04:28.123Z,51.62
2019-05-18T04:05:28.075Z,51.90
2019-05-18T04:06:28.037Z,51.14
2019-05-18T04:07:28.016Z,50.76
2019-05-18T04:08:27.983Z,51.62
2019-05-18T04:09:27.942Z,51.33
2019-05-18T04:10:27.916Z,52.09
2019-05-18T04:11:27.870Z,51.81
2019-05-18T04:12:27.848Z,51.90
2019-05-18T04:13:27.804Z,51.81
2019-05-18T04:14:27.772Z,51.33
2019-05-18T04:15:27.745Z,51.52
2019-05-18T04:16:27.723Z,51.33
2019-05-18T04:17:27.681Z,51.23
2019-05-18T04:18:27.651Z,51.43
2019-05-18T04:19:44.849Z,51.43
2019-05-18T04:20:27.581Z,52.09
2019-05-18T04:21:27.561Z,51.33
2019-05-18T04:22:27.507Z,50.85
2019-05-18T04:23:27.481Z,50.95
2019-05-18T04:24:27.438Z,50.95
2019-05-18T04:25:27.417Z,50.85
2019-05-18T04:26:27.384Z,51.04
2019-05-18T04:27:27.339Z,50.85
2019-05-18T04:28:27.311Z,51.04
2019-05-18T04:29:27.281Z,50.95
2019-05-18T04:30:27.244Z,51.81
2019-05-18T04:31:27.214Z,51.04
2019-05-18T04:32:27.183Z,51.04
2019-05-18T04:33:27.140Z,51.14
2019-05-18T04:34:27.120Z,50.95
2019-05-18T04:35:27.070Z,51.14
2019-05-18T04:36:27.046Z,50.95
2019-05-18T04:37:27.011Z,50.76
2019-05-18T04:38:26.972Z,50.76
2019-05-18T04:39:26.941Z,50.67
2019-05-18T04:40:26.906Z,50.85
2019-05-18T04:41:26.879Z,51.04
2019-05-18T04:42:26.852Z,51.04
2019-05-18T04:43:26.805Z,50.76
2019-05-18T04:44:26.785Z,50.76
2019-05-18T04:45:26.750Z,51.04
2019-05-18T04:46:26.725Z,50.57
2019-05-18T04:47:26.691Z,50.85
2019-05-18T04:48:26.652Z,50.95
2019-05-18T04:49:26.613Z,50.67
2019-05-18T04:50:26.583Z,50.85
2019-05-18T04:51:26.547Z,50.85
2019-05-18T04:52:26.528Z,51.33
2019-05-18T04:53:26.482Z,50.76
2019-05-18T04:54:26.445Z,50.85
2019-05-18T04:55:26.413Z,51.33
2019-05-18T04:56:26.392Z,51.33
2019-05-18T04:57:26.341Z,51.62
2019-05-18T04:58:26.324Z,51.33
2019-05-18T04:59:26.288Z,51.81
2019-05-18T05:00:26.253Z,51.33
2019-05-18T05:01:26.238Z,52.57
2019-05-18T05:02:26.193Z,52.00
2019-05-18T05:03:26.147Z,51.90
2019-05-18T05:04:26.116Z,51.52
2019-05-18T05:05:26.081Z,51.62
2019-05-18T05:06:26.052Z,51.33
2019-05-18T05:07:26.019Z,51.33
2019-05-18T05:08:25.983Z,51.33
2019-05-18T05:09:25.948Z,50.95
2019-05-18T05:10:25.927Z,51.33
2019-05-18T05:11:25.881Z,51.14
2019-05-18T05:12:25.856Z,51.33
2019-05-18T05:13:25.818Z,51.62
2019-05-18T05:14:25.807Z,50.76
2019-05-18T05:15:25.761Z,51.23
2019-05-18T05:16:25.716Z,51.43
2019-05-18T05:17:25.689Z,50.76
2019-05-18T05:18:25.653Z,51.04
2019-05-18T05:19:25.623Z,50.57
2019-05-18T05:20:25.582Z,50.85
2019-05-18T05:21:25.557Z,50.85
2019-05-18T05:22:25.519Z,51.04
2019-05-18T05:23:25.479Z,51.33
2019-05-18T05:24:25.445Z,50.95
2019-05-18T05:25:25.430Z,50.28
2019-05-18T05:26:25.394Z,50.38
2019-05-18T05:27:25.355Z,51.14
2019-05-18T05:28:25.320Z,50.85
2019-05-18T05:29:25.278Z,50.95
2019-05-18T05:30:25.257Z,50.76
2019-05-18T05:31:25.223Z,50.95
2019-05-18T05:32:25.202Z,50.78
2019-05-18T05:33:25.180Z,51.17
2019-05-18T05:34:25.120Z,51.26
2019-05-18T05:35:25.089Z,51.45
2019-05-18T05:36:25.063Z,51.17
2019-05-18T05:37:25.035Z,51.64
2019-05-18T05:38:24.989Z,51.07
2019-05-18T05:39:24.964Z,50.88
2019-05-18T05:40:24.930Z,50.88
2019-05-18T05:41:24.889Z,52.03
2019-05-18T05:42:24.870Z,52.79
2019-05-18T05:43:24.823Z,53.93
2019-05-18T05:44:24.795Z,54.03
2019-05-18T05:45:24.756Z,52.69
2019-05-18T05:46:24.734Z,52.22
2019-05-18T05:47:24.699Z,51.93
2019-05-18T05:48:24.854Z,52.03
2019-05-18T05:49:24.634Z,51.64
2019-05-18T05:50:35.173Z,51.86
2019-05-18T05:51:24.568Z,51.38
2019-05-18T05:52:24.530Z,51.67
2019-05-18T05:53:24.504Z,51.38
2019-05-18T05:54:24.460Z,52.15
2019-05-18T05:55:24.441Z,52.15
2019-05-18T05:56:24.406Z,53.00
2019-05-18T05:57:24.365Z,52.24
2019-05-18T05:58:24.350Z,52.34
2019-05-18T05:59:24.305Z,51.95
2019-05-18T06:00:24.279Z,52.24
2019-05-18T06:01:24.240Z,52.15
2019-05-18T06:02:24.206Z,53.00
2019-05-18T06:03:24.179Z,52.81
2019-05-18T06:04:24.145Z,52.91
2019-05-18T06:05:24.111Z,52.91
2019-05-18T06:06:24.071Z,53.00
2019-05-18T06:07:24.040Z,52.72
2019-05-18T06:08:24.015Z,53.86
2019-05-18T06:09:23.978Z,53.77
2019-05-18T06:10:23.945Z,53.89
2019-05-18T06:11:23.921Z,54.06
2019-05-18T06:12:23.891Z,54.37
2019-05-18T06:13:23.845Z,53.61
2019-05-18T06:14:23.832Z,53.70
2019-05-18T06:15:23.790Z,55.13
2019-05-18T06:16:23.752Z,54.27
2019-05-18T06:17:23.720Z,53.89
2019-05-18T06:18:23.688Z,53.41
2019-05-18T06:19:23.662Z,53.51
2019-05-18T06:20:23.623Z,55.23
2019-05-18T06:21:23.585Z,54.37
2019-05-18T06:22:23.582Z,54.08
2019-05-18T06:23:23.533Z,54.27
2019-05-18T06:24:23.500Z,54.21
2019-05-18T06:25:23.466Z,54.30
2019-05-18T06:26:24.326Z,54.11
2019-05-18T06:27:23.402Z,54.49
2019-05-18T06:28:23.374Z,55.93
2019-05-18T06:29:23.343Z,55.64
2019-05-18T06:30:23.306Z,55.93
2019-05-18T06:31:23.417Z,55.45
2019-05-18T06:32:23.242Z,55.74
2019-05-18T06:33:23.212Z,57.07
2019-05-18T06:34:23.176Z,58.03
2019-05-18T06:35:23.142Z,55.93
2019-05-18T06:36:23.108Z,57.17
2019-05-18T06:37:23.082Z,56.43
2019-05-18T06:38:23.048Z,57.10
2019-05-18T06:39:23.026Z,57.10
2019-05-18T06:40:22.981Z,56.24
2019-05-18T06:41:22.965Z,58.44
2019-05-18T06:42:22.932Z,58.25
2019-05-18T06:43:22.897Z,56.34
2019-05-18T06:44:22.862Z,57.87
2019-05-18T06:45:22.823Z,58.54
2019-05-18T06:46:22.803Z,57.58
2019-05-18T06:47:22.772Z,61.12
2019-05-18T06:48:22.735Z,58.92
2019-05-18T06:49:22.714Z,57.32
2019-05-18T06:50:22.690Z,60.38
2019-05-18T06:51:22.634Z,58.86
2019-05-18T06:52:22.607Z,59.62
2019-05-18T06:53:23.468Z,60.48
2019-05-18T06:54:22.553Z,59.72
2019-05-18T06:55:22.510Z,61.44
2019-05-18T06:56:22.493Z,60.58
2019-05-18T06:57:22.453Z,60.19
2019-05-18T06:58:22.422Z,60.58
2019-05-18T06:59:22.393Z,60.41
2019-05-18T07:00:22.364Z,62.30
2019-05-18T07:01:22.338Z,62.90
2019-05-18T07:02:22.298Z,61.94
2019-05-18T07:03:22.297Z,60.61
2019-05-18T07:04:22.244Z,59.94
2019-05-18T07:05:22.211Z,60.61
2019-05-18T07:06:22.178Z,60.13
2019-05-18T07:07:22.159Z,61.47
2019-05-18T07:08:22.111Z,60.61
2019-05-18T07:09:22.085Z,60.35
2019-05-18T07:10:22.048Z,61.31
2019-05-18T07:11:22.029Z,62.07
2019-05-18T07:12:21.993Z,62.04
2019-05-18T07:13:21.980Z,62.17
2019-05-18T07:14:25.707Z,61.98
2019-05-18T07:15:21.901Z,63.89
2019-05-18T07:16:21.873Z,61.98
2019-05-18T07:17:21.831Z,62.46
2019-05-18T07:18:21.800Z,62.26
2019-05-18T07:19:21.768Z,63.03
2019-05-18T07:20:21.751Z,62.84
2019-05-18T07:21:22.722Z,62.84
2019-05-18T07:22:21.688Z,63.13
2019-05-18T07:23:21.669Z,63.70
2019-05-18T07:24:21.636Z,63.22
2019-05-18T07:25:21.600Z,62.17
2019-05-18T07:26:21.576Z,62.84
2019-05-18T07:27:21.541Z,61.91
2019-05-18T07:28:21.506Z,61.53
2019-05-18T07:29:21.468Z,61.82
2019-05-18T07:30:21.452Z,62.49
2019-05-18T07:31:21.416Z,61.43
2019-05-18T07:32:21.406Z,63.45
2019-05-18T07:33:21.362Z,62.49
2019-05-18T07:34:21.319Z,62.87
2019-05-18T07:35:21.309Z,65.26
2019-05-18T07:36:21.270Z,63.35
2019-05-18T07:37:21.235Z,63.73
2019-05-18T07:38:21.205Z,62.39
2019-05-18T07:39:21.185Z,62.59
2019-05-18T07:40:21.157Z,62.59
2019-05-18T07:41:21.119Z,62.01
2019-05-18T07:42:21.091Z,63.06
2019-05-18T07:43:21.053Z,62.77
2019-05-18T07:44:21.025Z,65.08
2019-05-18T07:45:20.999Z,63.73
2019-05-18T07:46:20.966Z,61.34
2019-05-18T07:47:20.952Z,62.10
2019-05-18T07:48:20.916Z,62.77
2019-05-18T07:49:20.866Z,64.82
2019-05-18T07:50:20.843Z,64.53
2019-05-18T07:51:20.819Z,64.82
2019-05-18T07:52:20.801Z,64.05
2019-05-18T07:53:20.742Z,63.67
2019-05-18T07:54:20.723Z,65.68
2019-05-18T07:55:20.691Z,63.57
2019-05-18T07:56:20.673Z,65.78
2019-05-18T07:57:20.628Z,65.30
2019-05-18T07:58:20.606Z,65.39
2019-05-18T07:59:20.573Z,66.74
2019-05-18T08:00:20.547Z,65.39
2019-05-18T08:01:20.517Z,65.30
2019-05-18T08:02:20.502Z,65.01
2019-05-18T08:03:20.472Z,65.49
2019-05-18T08:04:20.423Z,65.78
2019-05-18T08:05:20.398Z,65.39
2019-05-18T08:06:20.364Z,67.22
2019-05-18T08:07:20.344Z,67.41
2019-05-18T08:08:20.312Z,65.20
2019-05-18T08:09:20.294Z,64.53
2019-05-18T08:10:20.254Z,65.59
2019-05-18T08:11:20.232Z,65.23
2019-05-18T08:12:20.197Z,64.47
2019-05-18T08:13:20.169Z,64.95
2019-05-18T08:14:20.127Z,64.76
2019-05-18T08:15:20.103Z,65.72
2019-05-18T08:16:20.087Z,63.89
2019-05-18T08:17:20.045Z,64.09
2019-05-18T08:18:20.022Z,66.58
2019-05-18T08:19:20.034Z,64.76
2019-05-18T08:20:19.969Z,65.14
2019-05-18T08:21:19.929Z,64.85
2019-05-18T08:22:19.991Z,63.45
2019-05-18T08:23:19.913Z,65.46
2019-05-18T08:24:19.899Z,65.27
2019-05-18T08:25:19.892Z,65.94
2019-05-18T08:26:19.768Z,67.38
2019-05-18T08:27:19.789Z,66.90
2019-05-18T08:28:19.739Z,66.03
2019-05-18T08:29:19.695Z,66.90
2019-05-18T08:30:19.668Z,67.47
2019-05-18T08:31:19.658Z,67.19
2019-05-18T08:32:19.677Z,66.03
2019-05-18T08:33:19.627Z,68.44
2019-05-18T08:34:19.617Z,69.87
2019-05-18T08:35:19.561Z,68.24
2019-05-18T08:36:19.532Z,69.49
2019-05-18T08:37:19.508Z,70.93
2019-05-18T08:38:19.489Z,71.61
2019-05-18T08:39:19.461Z,69.40
2019-05-18T08:40:19.420Z,69.11
2019-05-18T08:41:19.354Z,69.20
2019-05-18T08:42:19.304Z,70.20
2019-05-18T08:43:19.284Z,69.43
2019-05-18T08:44:19.365Z,69.72
2019-05-18T08:45:19.291Z,67.32
2019-05-18T08:46:19.236Z,68.18
2019-05-18T08:47:19.185Z,70.97
2019-05-18T08:48:19.203Z,68.47
2019-05-18T08:49:19.142Z,69.81
2019-05-18T08:50:19.095Z,69.95
2019-05-18T08:51:19.084Z,69.37
2019-05-18T08:52:19.021Z,70.33
2019-05-18T08:53:19.026Z,71.87
2019-05-18T08:54:19.008Z,73.21
2019-05-18T08:55:18.984Z,70.52
2019-05-18T08:56:18.971Z,73.44
2019-05-18T08:57:18.922Z,74.75
2019-05-18T08:58:18.842Z,72.44
2019-05-18T08:59:18.857Z,71.91
2019-05-18T09:00:18.811Z,71.10
2019-05-18T09:01:18.812Z,73.02
2019-05-18T09:02:18.821Z,74.08
2019-05-18T09:03:18.770Z,71.58
2019-05-18T09:04:18.735Z,72.54
2019-05-18T09:05:18.716Z,73.21
2019-05-18T09:06:18.646Z,73.60
2019-05-18T09:07:18.665Z,71.29
2019-05-18T09:08:18.630Z,73.50
2019-05-18T09:09:18.551Z,72.00
2019-05-18T09:10:18.547Z,72.38
2019-05-18T09:11:18.522Z,73.83
2019-05-18T09:12:18.550Z,72.86
2019-05-18T09:13:18.721Z,72.29
2019-05-18T09:14:18.432Z,75.37
2019-05-18T09:15:18.437Z,73.15
2019-05-18T09:16:18.340Z,73.15
2019-05-18T09:17:18.307Z,74.88
2019-05-18T09:18:18.322Z,74.50
2019-05-18T09:19:18.315Z,75.56
2019-05-18T09:20:18.290Z,73.96
2019-05-18T09:21:18.213Z,72.61
2019-05-18T09:22:23.256Z,74.82
2019-05-18T09:23:18.207Z,74.63
2019-05-18T09:24:18.128Z,74.25
2019-05-18T09:25:18.127Z,77.08
2019-05-18T09:26:18.083Z,73.51
2019-05-18T09:27:18.066Z,71.59
2019-05-18T09:28:18.035Z,73.90
2019-05-18T09:29:18.054Z,71.97
2019-05-18T09:30:18.009Z,72.45
2019-05-18T09:31:17.943Z,76.98
2019-05-18T09:32:17.908Z,75.24
2019-05-18T09:33:17.861Z,75.05
2019-05-18T09:34:17.856Z,76.11
2019-05-18T09:35:17.836Z,76.50
2019-05-18T09:36:17.854Z,74.38
2019-05-18T09:37:17.831Z,75.92
2019-05-18T09:38:17.785Z,76.73
2019-05-18T09:39:17.744Z,79.33
2019-05-18T09:40:17.700Z,76.63
2019-05-18T09:41:17.714Z,77.31
2019-05-18T09:42:17.658Z,73.46
2019-05-18T09:43:17.664Z,79.33
2019-05-18T09:44:17.581Z,74.80
2019-05-18T09:45:17.574Z,72.20
2019-05-18T09:46:17.524Z,74.71
2019-05-18T09:47:17.492Z,77.44
2019-05-18T09:48:17.463Z,78.56
2019-05-18T09:49:17.477Z,79.71
2019-05-18T09:50:17.428Z,79.71
2019-05-18T09:51:17.378Z,77.21
2019-05-18T09:52:17.363Z,76.48
2019-05-18T09:53:17.359Z,77.25
2019-05-18T09:54:17.316Z,80.81
2019-05-18T09:55:17.296Z,80.04
2019-05-18T09:56:17.307Z,77.53
2019-05-18T09:57:17.269Z,73.68
2019-05-18T09:58:17.199Z,80.14
2019-05-18T09:59:17.195Z,78.59
2019-05-18T10:00:17.149Z,78.98
2019-05-18T10:01:17.123Z,78.11
2019-05-18T10:02:17.092Z,78.21
2019-05-18T10:03:17.054Z,77.92
2019-05-18T10:04:17.033Z,78.02
2019-05-18T10:05:16.988Z,76.86
2019-05-18T10:06:16.971Z,78.79
2019-05-18T10:07:16.974Z,74.10
2019-05-18T10:08:16.969Z,77.09
2019-05-18T10:09:16.927Z,79.98
2019-05-18T10:10:16.859Z,78.83
2019-05-18T10:11:16.827Z,76.03
2019-05-18T10:12:16.824Z,79.74
2019-05-18T10:13:16.811Z,77.51
2019-05-18T10:14:16.790Z,81.32
2019-05-18T10:15:16.740Z,76.59
2019-05-18T10:16:16.748Z,79.91
2019-05-18T10:17:16.684Z,78.85
2019-05-18T10:18:16.655Z,77.78
2019-05-18T10:19:16.657Z,77.69
2019-05-18T10:20:16.598Z,76.86
2019-05-18T10:21:16.574Z,80.05
2019-05-18T10:22:16.560Z,78.41
2019-05-18T10:23:16.592Z,79.89
2019-05-18T10:24:16.497Z,79.02
2019-05-18T10:25:16.515Z,78.83
2019-05-18T10:26:16.486Z,73.46
2019-05-18T10:27:16.440Z,76.74
2019-05-18T10:28:16.402Z,77.90
2019-05-18T10:29:16.395Z,76.26
2019-05-18T10:30:16.347Z,72.68
2019-05-18T10:31:16.377Z,75.81
2019-05-18T10:32:16.332Z,72.72
2019-05-18T10:33:16.306Z,72.91
2019-05-18T10:34:16.270Z,71.66
2019-05-18T10:35:16.226Z,72.81
2019-05-18T10:36:16.217Z,71.84
2019-05-18T10:37:16.199Z,71.36
2019-05-18T10:38:16.161Z,72.81
2019-05-18T10:39:16.152Z,72.91
2019-05-18T10:40:16.153Z,73.10
2019-05-18T10:41:16.105Z,70.98
2019-05-18T10:42:16.108Z,71.94
2019-05-18T10:43:16.033Z,71.17
2019-05-18T10:44:16.023Z,73.88
2019-05-18T10:45:16.038Z,73.68
2019-05-18T10:46:15.982Z,71.75
2019-05-18T10:47:15.943Z,70.04
2019-05-18T10:48:15.916Z,70.62
2019-05-18T10:49:16.010Z,68.46
2019-05-18T10:50:15.903Z,71.75
2019-05-18T10:51:15.933Z,70.34
2019-05-18T10:52:15.813Z,67.88
2019-05-18T10:53:27.750Z,66.05
2019-05-18T10:54:15.802Z,65.14
2019-05-18T10:55:15.789Z,70.17
2019-05-18T10:56:15.726Z,70.98
2019-05-18T10:57:15.722Z,66.27
2019-05-18T10:58:15.703Z,65.30
2019-05-18T10:59:15.707Z,63.08
2019-05-18T11:00:15.697Z,65.98
2019-05-18T11:01:15.633Z,68.40
2019-05-18T11:02:15.603Z,64.75
2019-05-18T11:03:15.574Z,64.07
2019-05-18T11:04:15.547Z,61.33
2019-05-18T11:05:15.562Z,63.59
2019-05-18T11:06:15.506Z,64.17
2019-05-18T11:07:15.475Z,63.18
2019-05-18T11:08:15.504Z,64.17
2019-05-18T11:09:15.458Z,64.95
2019-05-18T11:10:15.431Z,65.05
2019-05-18T11:11:15.424Z,62.95
2019-05-18T11:12:15.384Z,60.72
2019-05-18T11:13:17.195Z,60.14
2019-05-18T11:14:18.605Z,61.40
2019-05-18T11:15:15.308Z,59.75
2019-05-18T11:16:15.307Z,60.36
2019-05-18T11:17:15.230Z,60.07
2019-05-18T11:18:15.204Z,58.23
2019-05-18T11:19:15.200Z,61.04
2019-05-18T11:20:15.208Z,62.33
2019-05-18T11:21:15.196Z,58.36
2019-05-18T11:22:15.130Z,57.58
2019-05-18T11:23:15.093Z,57.29
2019-05-18T11:24:15.139Z,60.10
2019-05-18T11:25:15.082Z,56.32
2019-05-18T11:26:15.103Z,57.00
2019-05-18T11:27:15.018Z,54.67
2019-05-18T11:28:15.034Z,54.16
2019-05-18T11:29:14.969Z,54.45
2019-05-18T11:30:14.921Z,54.64
2019-05-18T11:31:15.013Z,54.77
2019-05-18T11:32:14.910Z,53.67
2019-05-18T11:33:14.892Z,53.26
2019-05-18T11:34:14.899Z,53.36
2019-05-18T11:35:14.839Z,53.85
2019-05-18T11:36:14.778Z,53.17
2019-05-18T11:37:14.803Z,52.78
2019-05-18T11:38:14.811Z,52.29
2019-05-18T11:39:14.739Z,53.75
2019-05-18T11:40:14.715Z,52.80
2019-05-18T11:41:14.690Z,52.80
2019-05-18T11:42:14.675Z,51.84
2019-05-18T11:43:14.621Z,49.97
2019-05-18T11:44:14.661Z,51.52
2019-05-18T11:45:14.604Z,51.42
2019-05-18T11:46:14.611Z,50.55
2019-05-18T11:47:14.574Z,52.00
2019-05-18T11:48:14.531Z,49.80
2019-05-18T11:49:14.551Z,49.90
2019-05-18T11:50:14.478Z,49.70
2019-05-18T11:51:14.469Z,48.93
2019-05-18T11:52:14.421Z,48.54
2019-05-18T11:53:14.411Z,49.90
2019-05-18T11:54:14.370Z,50.02
2019-05-18T11:55:14.412Z,49.63
2019-05-18T11:56:14.365Z,50.60
2019-05-18T11:57:14.377Z,52.18
2019-05-18T11:58:14.289Z,50.04
2019-05-18T11:59:15.723Z,51.50
2019-05-18T12:00:14.314Z,50.04
2019-05-18T12:01:14.298Z,51.62
2019-05-18T12:02:14.225Z,51.53
2019-05-18T12:03:14.173Z,49.00
2019-05-18T12:04:14.181Z,48.22
2019-05-18T12:05:14.145Z,48.71
2019-05-18T12:06:14.121Z,47.18
2019-05-18T12:07:14.116Z,50.09
2019-05-18T12:08:14.050Z,49.80
2019-05-18T12:09:14.057Z,49.29
2019-05-18T12:10:14.033Z,49.56
2019-05-18T12:11:14.037Z,49.95
2019-05-18T12:12:13.975Z,48.78
2019-05-18T12:13:13.987Z,50.72
2019-05-18T12:14:13.962Z,51.23
2019-05-18T12:15:13.913Z,51.33
2019-05-18T12:16:17.197Z,50.09
2019-05-18T12:17:13.885Z,49.51
2019-05-18T12:18:13.881Z,48.57
2019-05-18T12:19:13.844Z,49.34
2019-05-18T12:20:13.802Z,50.70
2019-05-18T12:21:13.814Z,49.24
2019-05-18T12:22:13.812Z,48.58
2019-05-18T12:23:13.711Z,46.33
2019-05-18T12:24:15.815Z,45.75
2019-05-18T12:25:13.757Z,48.68
2019-05-18T12:26:13.683Z,46.94
2019-05-18T12:27:13.657Z,47.23
2019-05-18T12:28:13.646Z,49.58
2019-05-18T12:29:13.635Z,48.22
2019-05-18T12:30:13.588Z,49.78
2019-05-18T12:31:13.596Z,49.97
2019-05-18T12:32:13.540Z,47.15
2019-05-18T12:33:13.544Z,45.89
2019-05-18T12:34:13.508Z,44.51
2019-05-18T12:35:13.467Z,45.75
2019-05-18T12:36:15.590Z,45.26
2019-05-18T12:37:13.422Z,47.20
2019-05-18T12:38:13.400Z,47.42
2019-05-18T12:39:13.428Z,47.61
2019-05-18T12:40:13.359Z,48.78
2019-05-18T12:41:13.311Z,49.46
2019-05-18T12:42:13.338Z,47.42
2019-05-18T12:43:13.338Z,46.84
2019-05-18T12:44:13.266Z,48.10
2019-05-18T12:45:13.214Z,46.45
2019-05-18T12:46:13.204Z,47.71
2019-05-18T12:47:14.460Z,49.87
2019-05-18T12:48:13.170Z,46.77
2019-05-18T12:49:13.136Z,47.23
2019-05-18T12:50:13.178Z,46.42
2019-05-18T12:51:13.093Z,46.79
2019-05-18T12:52:13.113Z,47.98